« 定点 富山空港 2018/4/2 mon | トップページ | [B.I.]瀬戸大橋魅力再発見!フェスタ 倉敷市 2018/4/8 sun »

2018/04/08

[前日B.I.]瀬戸大橋魅力再発見!フェスタ 倉敷市 2018/4/7 sat

新年度最初の遠征は、中国四国地方

20180407_kojima_00shinoosakast

久しぶりに山陽新幹線

20180407_kojima_01mc

岡山に到着間近に、ふと目にした沿岸を東進する、多分海兵隊のスパスタ

20180407_kojima_02okayamast

岡山駅 瀬戸大橋線に乗り換えです。

20180407_kojima_03okayamast

マリンライナーに乗車。天候が気になります。事前情報で、本日のイベント類は強風の為中止になっていると確認した。

RJOT 070500Z 27017KT 9999 VCSH FEW030 BKN040 09/M00 Q1008

20180407_kojima_04kojimast

車内でラジオキャッチ・・ ブルーが向かっています。間に合いそうです。

RJOT 070509Z 26019G29KT 9999 VCSH FEW030 BKN040 10/M00 Q1008 RMK 1CU030 6CU040 A2977

20180407_kojima_05bi

児島駅前の歩道橋に上がって直ぐ・・ キター

20180407_kojima_06bi

今にも雨が降りそうな中を与島の方で東から北に転進して・・

20180407_kojima_07bi

上空通過

20180407_kojima_08bi

小松が荒天で、確認の為だけに2機での飛来の模様です。

20180407_kojima_09bi

スモック

20180407_kojima_10bi

ライトターンして・・

20180407_kojima_11bi

東側から進入

20180407_kojima_12bi

くらー

20180407_kojima_13bi

20180407_kojima_14bi665745

#1 66-5745 T-4 11SQ

20180407_kojima_15bi465731

#4 46-5731 T-4 11SQ

20180407_kojima_16bi

再度、南側から

20180407_kojima_17bi

雨が降ってきたよー

20180407_kojima_18bi465731

レフトターンして・・

20180407_kojima_19bi

西から進入

20180407_kojima_20bi

そのまま雲の中に消えてRTB

明日は、どうかな・・

|

« 定点 富山空港 2018/4/2 mon | トップページ | [B.I.]瀬戸大橋魅力再発見!フェスタ 倉敷市 2018/4/8 sun »

BI」カテゴリの記事

コメント

コメントを書く



(ウェブ上には掲載しません)


コメントは記事投稿者が公開するまで表示されません。



トラックバック


この記事へのトラックバック一覧です: [前日B.I.]瀬戸大橋魅力再発見!フェスタ 倉敷市 2018/4/7 sat:

« 定点 富山空港 2018/4/2 mon | トップページ | [B.I.]瀬戸大橋魅力再発見!フェスタ 倉敷市 2018/4/8 sun »